Flight Track Log - Related Links

Times and Time Zones

All times are in EDT time to prevent confusion due to time zone crossing. See the PDT4130 flight status page for this flight to view local times or setup timezone preferences in your user account.

Time Position Orientation Groundspeed Altitude Reporting Facility
EDT Latitude Longitude Course Direction KTS MPH feet Rate Location/Type
Sat 04:26:00 PM 39.8667 -75.2667 90° East 109 125 600  Level Philadelphia TRACON
Sat 04:27:24 PM 39.8167 -75.2833 194° South 133 153 2,700 1,040 Climbing Philadelphia TRACON
Sat 04:28:30 PM 39.7667 -75.3000 194° South 215 247 3,200 1,286 Climbing Philadelphia TRACON
Sat 04:29:00 PM 39.8500 -75.0980 90° East  Level FlightAware Approximate
Sat 04:29:30 PM 39.7167 -75.3167 194° South 137 158 5,400  Level Philadelphia TRACON
Sat 04:30:00 PM 39.8500 -75.0635 90° East  Level FlightAware Approximate
Sat 04:30:24 PM 39.7000 -75.3667 247° West 141 162 6,500  Level Philadelphia TRACON
Sat 04:31:00 PM 39.8500 -75.0290 90° East  Level FlightAware Approximate
Sat 04:31:36 PM 39.7167 -75.4000 303° West 171 197 7,000  Level Philadelphia TRACON
Sat 04:32:30 PM 39.7333 -75.3500 67° East 229 264 7,000  Level Philadelphia TRACON
Sat 04:33:30 PM 39.7500 -75.2667 75° East 236 272 7,000  Level Philadelphia TRACON
Sat 04:34:31 PM 39.7833 -75.1833 62° Northeast 238 274 7,000  Level Philadelphia TRACON
Sat 04:35:31 PM 39.8167 -75.1167 57° Northeast 235 270 7,000  Level Philadelphia TRACON
Sat 04:36:31 PM 39.8333 -75.0333 75° East 241 277 7,000  Level Philadelphia TRACON
Sat 04:37:31 PM 39.8833 -74.9667 46° Northeast 239 275 7,000  Level Philadelphia TRACON
Sat 04:38:25 PM 39.9167 -74.9167 49° Northeast 231 266 7,000  Level Philadelphia TRACON
Sat 04:39:12 PM 39.9500 -74.8667 49° Northeast 235 270 7,000  Level New York TRACON
Sat 04:40:12 PM 40.0000 -74.8000 46° Northeast 236 272 7,000 50 Level New York TRACON
Sat 04:41:12 PM 40.0333 -74.7333 57° Northeast 234 269 7,100  Climbing New York TRACON
Sat 04:42:12 PM 40.0833 -74.6667 46° Northeast 234 269 7,000 -50 Descending New York TRACON
Sat 04:43:12 PM 40.1167 -74.6167 49° Northeast 236 272 7,000 53 Level New York TRACON
Sat 04:44:06 PM 40.1667 -74.5667 37° Northeast 231 266 7,100 -105 Climbing New York TRACON
Sat 04:45:06 PM 40.2333 -74.5667 360° North 228 262 6,800 -550 Descending New York TRACON
Sat 04:46:06 PM 40.3000 -74.5500 11° North 245 282 6,000 -350 Descending New York TRACON
Sat 04:47:06 PM 40.3667 -74.5500 360° North 234 269 6,100 50 Climbing New York TRACON
Sat 04:48:06 PM 40.4333 -74.5500 360° North 226 260 6,100 -50 Level New York TRACON
Sat 04:49:06 PM 40.4833 -74.5667 346° North 221 254 6,000 -50 Descending New York TRACON
Sat 04:50:06 PM 40.5500 -74.5667 360° North 221 254 6,000 50 Level New York TRACON
Sat 04:51:06 PM 40.6167 -74.5833 349° North 221 254 6,100 50 Climbing New York TRACON
Sat 04:52:06 PM 40.6667 -74.5833 360° North 219 252 6,100 -50 Level New York TRACON
Sat 04:53:06 PM 40.7333 -74.5833 360° North 222 255 6,000 -50 Descending New York TRACON
Sat 04:54:06 PM 40.8000 -74.5833 360° North 220 253 6,000 53 Level New York TRACON
Sat 04:55:00 PM 40.8500 -74.5667 14° North 223 257 6,100 -500 Climbing New York TRACON
Sat 04:56:06 PM 40.9167 -74.5667 360° North 243 280 5,000 -524 Descending New York TRACON
Sat 04:57:06 PM 40.9833 -74.5500 11° North 238 274 5,000 50 Level New York TRACON
Sat 04:58:06 PM 41.0333 -74.5000 37° Northeast 227 261 5,100 50 Climbing New York TRACON
Sat 04:59:06 PM 41.0667 -74.4333 56° Northeast 221 254 5,100 -50 Level New York TRACON
Sat 05:00:06 PM 41.0667 -74.3500 90° East 223 257 5,000  Descending New York TRACON
Sat 05:01:06 PM 41.0667 -74.2667 90° East 228 262 5,100 50 Climbing New York TRACON
Sat 05:02:06 PM 41.0333 -74.2000 124° Southeast 232 267 5,100 -450 Level New York TRACON
Sat 05:03:06 PM 40.9833 -74.1667 153° Southeast 221 254 4,200 -550 Descending New York TRACON
Sat 05:04:06 PM 40.9500 -74.1167 131° Southeast 192 221 4,000 -450 Descending New York TRACON
Sat 05:05:06 PM 40.9000 -74.0833 153° Southeast 194 223 3,300 -500 Descending New York TRACON
Sat 05:06:06 PM 40.8500 -74.0500 153° Southeast 188 216 3,000 -500 Descending New York TRACON
Sat 05:07:06 PM 40.8000 -74.0833 207° Southwest 202 232 2,300 -750 Descending New York TRACON
Sat 05:08:06 PM 40.7500 -74.0833 180° South 201 231 1,500 -744 Descending New York TRACON
Sat 05:09:07 PM 40.7000 -74.1000 194° South 148 170 800 -600 Descending New York TRACON
Sat 05:10:06 PM 40.7000 -74.1333 270° West 104 120 300 -508 Descending New York TRACON
Sat 05:12:00 PM 40.6925 -74.1687 254° West  Level Estimated

Login

Don't have an account? Register now (free) for customized features, flight alerts, and more!